sensor_id;sensor_type;location;lat;lon;timestamp;P1;durP1;ratioP1;P2;durP2;ratioP2
5878;SDS011;2965;42.640;23.370;2022-07-29T00:00:04;11.33;;;9.83;;
5878;SDS011;2965;42.640;23.370;2022-07-29T00:02:31;16.30;;;11.33;;
5878;SDS011;2965;42.640;23.370;2022-07-29T00:04:57;10.13;;;9.07;;
5878;SDS011;2965;42.640;23.370;2022-07-29T00:07:22;11.93;;;10.03;;
5878;SDS011;2965;42.640;23.370;2022-07-29T00:09:48;10.70;;;9.77;;
5878;SDS011;2965;42.640;23.370;2022-07-29T00:12:13;12.43;;;9.30;;
5878;SDS011;2965;42.640;23.370;2022-07-29T00:14:39;14.53;;;9.50;;
5878;SDS011;2965;42.640;23.370;2022-07-29T00:17:04;11.90;;;10.63;;
5878;SDS011;2965;42.640;23.370;2022-07-29T00:19:30;17.83;;;9.67;;
5878;SDS011;2965;42.640;23.370;2022-07-29T00:21:55;11.20;;;10.20;;
5878;SDS011;2965;42.640;23.370;2022-07-29T00:24:21;11.83;;;10.83;;
5878;SDS011;2965;42.640;23.370;2022-07-29T00:26:46;14.63;;;10.67;;
5878;SDS011;2965;42.640;23.370;2022-07-29T00:29:11;10.93;;;9.93;;
5878;SDS011;2965;42.640;23.370;2022-07-29T00:31:37;12.40;;;10.93;;
5878;SDS011;2965;42.640;23.370;2022-07-29T00:34:02;19.53;;;11.60;;
5878;SDS011;2965;42.640;23.370;2022-07-29T00:36:28;11.57;;;10.50;;
5878;SDS011;2965;42.640;23.370;2022-07-29T00:38:53;19.83;;;10.80;;
5878;SDS011;2965;42.640;23.370;2022-07-29T00:41:19;11.63;;;10.27;;
5878;SDS011;2965;42.640;23.370;2022-07-29T00:43:45;13.00;;;10.43;;
5878;SDS011;2965;42.640;23.370;2022-07-29T00:46:11;19.57;;;12.63;;
5878;SDS011;2965;42.640;23.370;2022-07-29T00:48:36;13.17;;;11.77;;
5878;SDS011;2965;42.640;23.370;2022-07-29T00:51:04;13.77;;;11.07;;
5878;SDS011;2965;42.640;23.370;2022-07-29T00:53:31;13.30;;;10.23;;
5878;SDS011;2965;42.640;23.370;2022-07-29T00:55:57;17.17;;;11.70;;
5878;SDS011;2965;42.640;23.370;2022-07-29T00:58:24;11.70;;;10.60;;
5878;SDS011;2965;42.640;23.370;2022-07-29T01:00:51;11.67;;;10.67;;
5878;SDS011;2965;42.640;23.370;2022-07-29T01:03:17;24.10;;;9.73;;
5878;SDS011;2965;42.640;23.370;2022-07-29T01:05:43;15.00;;;10.87;;
5878;SDS011;2965;42.640;23.370;2022-07-29T01:08:11;11.93;;;10.73;;
5878;SDS011;2965;42.640;23.370;2022-07-29T01:10:39;10.37;;;9.30;;
5878;SDS011;2965;42.640;23.370;2022-07-29T01:13:05;20.40;;;10.40;;
5878;SDS011;2965;42.640;23.370;2022-07-29T01:15:33;11.97;;;10.77;;
5878;SDS011;2965;42.640;23.370;2022-07-29T01:18:13;13.27;;;11.40;;
5878;SDS011;2965;42.640;23.370;2022-07-29T01:23:52;11.33;;;10.17;;
5878;SDS011;2965;42.640;23.370;2022-07-29T01:31:38;13.93;;;10.00;;
5878;SDS011;2965;42.640;23.370;2022-07-29T01:34:10;11.90;;;9.83;;
5878;SDS011;2965;42.640;23.370;2022-07-29T01:36:43;15.53;;;9.40;;
5878;SDS011;2965;42.640;23.370;2022-07-29T01:39:27;11.07;;;9.97;;
5878;SDS011;2965;42.640;23.370;2022-07-29T01:44:48;10.60;;;9.60;;
5878;SDS011;2965;42.640;23.370;2022-07-29T01:47:23;10.67;;;9.57;;
5878;SDS011;2965;42.640;23.370;2022-07-29T01:49:56;11.10;;;10.10;;
5878;SDS011;2965;42.640;23.370;2022-07-29T01:52:24;14.30;;;10.27;;
5878;SDS011;2965;42.640;23.370;2022-07-29T01:54:57;15.47;;;9.83;;
5878;SDS011;2965;42.640;23.370;2022-07-29T01:57:28;18.40;;;10.67;;
5878;SDS011;2965;42.640;23.370;2022-07-29T01:59:57;10.97;;;9.87;;
5878;SDS011;2965;42.640;23.370;2022-07-29T02:02:25;11.50;;;9.50;;
5878;SDS011;2965;42.640;23.370;2022-07-29T02:04:53;10.17;;;9.27;;
5878;SDS011;2965;42.640;23.370;2022-07-29T02:07:21;16.00;;;10.33;;
5878;SDS011;2965;42.640;23.370;2022-07-29T02:09:50;10.30;;;9.40;;
5878;SDS011;2965;42.640;23.370;2022-07-29T02:12:17;12.17;;;10.03;;
5878;SDS011;2965;42.640;23.370;2022-07-29T02:14:46;19.27;;;9.60;;
5878;SDS011;2965;42.640;23.370;2022-07-29T02:17:14;8.90;;;8.00;;
5878;SDS011;2965;42.640;23.370;2022-07-29T02:19:46;15.43;;;10.63;;
5878;SDS011;2965;42.640;23.370;2022-07-29T02:22:14;17.07;;;10.30;;
5878;SDS011;2965;42.640;23.370;2022-07-29T02:24:41;12.80;;;10.37;;
5878;SDS011;2965;42.640;23.370;2022-07-29T02:27:07;10.63;;;9.50;;
5878;SDS011;2965;42.640;23.370;2022-07-29T02:29:35;11.53;;;9.47;;
5878;SDS011;2965;42.640;23.370;2022-07-29T02:32:04;16.60;;;9.27;;
5878;SDS011;2965;42.640;23.370;2022-07-29T02:34:33;10.53;;;8.23;;
5878;SDS011;2965;42.640;23.370;2022-07-29T02:37:00;16.57;;;9.93;;
5878;SDS011;2965;42.640;23.370;2022-07-29T02:39:27;17.30;;;9.17;;
5878;SDS011;2965;42.640;23.370;2022-07-29T02:41:59;10.60;;;8.60;;
5878;SDS011;2965;42.640;23.370;2022-07-29T02:44:28;14.93;;;8.40;;
5878;SDS011;2965;42.640;23.370;2022-07-29T02:47:14;10.30;;;9.30;;
5878;SDS011;2965;42.640;23.370;2022-07-29T02:52:22;10.40;;;8.97;;
5878;SDS011;2965;42.640;23.370;2022-07-29T02:54:59;12.60;;;9.70;;
5878;SDS011;2965;42.640;23.370;2022-07-29T03:00:26;11.47;;;10.13;;
5878;SDS011;2965;42.640;23.370;2022-07-29T03:02:55;9.93;;;9.10;;
5878;SDS011;2965;42.640;23.370;2022-07-29T03:05:23;9.33;;;8.63;;
5878;SDS011;2965;42.640;23.370;2022-07-29T03:07:51;9.57;;;8.87;;
5878;SDS011;2965;42.640;23.370;2022-07-29T03:10:24;10.80;;;9.80;;
5878;SDS011;2965;42.640;23.370;2022-07-29T03:12:51;10.13;;;9.23;;
5878;SDS011;2965;42.640;23.370;2022-07-29T03:15:17;15.00;;;9.87;;
5878;SDS011;2965;42.640;23.370;2022-07-29T03:17:43;11.50;;;10.40;;
5878;SDS011;2965;42.640;23.370;2022-07-29T03:20:09;14.60;;;11.67;;
5878;SDS011;2965;42.640;23.370;2022-07-29T03:22:40;12.13;;;10.93;;
5878;SDS011;2965;42.640;23.370;2022-07-29T03:25:12;17.93;;;11.67;;
5878;SDS011;2965;42.640;23.370;2022-07-29T03:27:39;15.77;;;10.97;;
5878;SDS011;2965;42.640;23.370;2022-07-29T03:30:05;12.13;;;10.93;;
5878;SDS011;2965;42.640;23.370;2022-07-29T03:32:32;11.87;;;10.67;;
5878;SDS011;2965;42.640;23.370;2022-07-29T03:34:57;19.00;;;10.20;;
5878;SDS011;2965;42.640;23.370;2022-07-29T03:37:23;14.20;;;11.40;;
5878;SDS011;2965;42.640;23.370;2022-07-29T03:39:48;24.37;;;11.57;;
5878;SDS011;2965;42.640;23.370;2022-07-29T03:42:16;19.43;;;11.83;;
5878;SDS011;2965;42.640;23.370;2022-07-29T03:44:45;16.33;;;11.23;;
5878;SDS011;2965;42.640;23.370;2022-07-29T03:47:13;17.13;;;10.40;;
5878;SDS011;2965;42.640;23.370;2022-07-29T03:49:42;16.97;;;12.03;;
5878;SDS011;2965;42.640;23.370;2022-07-29T03:52:11;11.83;;;10.73;;
5878;SDS011;2965;42.640;23.370;2022-07-29T03:54:37;12.30;;;8.97;;
5878;SDS011;2965;42.640;23.370;2022-07-29T03:57:03;16.27;;;10.07;;
5878;SDS011;2965;42.640;23.370;2022-07-29T03:59:32;13.80;;;9.80;;
5878;SDS011;2965;42.640;23.370;2022-07-29T04:01:59;10.10;;;8.83;;
5878;SDS011;2965;42.640;23.370;2022-07-29T04:04:27;12.30;;;11.00;;
5878;SDS011;2965;42.640;23.370;2022-07-29T04:06:52;14.83;;;10.70;;
5878;SDS011;2965;42.640;23.370;2022-07-29T04:09:17;10.97;;;9.80;;
5878;SDS011;2965;42.640;23.370;2022-07-29T04:11:43;15.43;;;9.90;;
5878;SDS011;2965;42.640;23.370;2022-07-29T04:14:09;16.20;;;10.70;;
5878;SDS011;2965;42.640;23.370;2022-07-29T04:16:35;18.17;;;9.80;;
5878;SDS011;2965;42.640;23.370;2022-07-29T04:19:00;13.53;;;9.80;;
5878;SDS011;2965;42.640;23.370;2022-07-29T04:21:26;12.27;;;10.70;;
5878;SDS011;2965;42.640;23.370;2022-07-29T04:23:51;11.63;;;10.47;;
5878;SDS011;2965;42.640;23.370;2022-07-29T04:26:17;11.27;;;10.13;;
5878;SDS011;2965;42.640;23.370;2022-07-29T04:28:44;10.57;;;9.47;;
5878;SDS011;2965;42.640;23.370;2022-07-29T04:31:10;21.60;;;10.00;;
5878;SDS011;2965;42.640;23.370;2022-07-29T04:33:36;11.40;;;9.97;;
5878;SDS011;2965;42.640;23.370;2022-07-29T04:36:02;18.33;;;10.10;;
5878;SDS011;2965;42.640;23.370;2022-07-29T04:38:28;11.23;;;10.00;;
5878;SDS011;2965;42.640;23.370;2022-07-29T04:40:53;22.47;;;9.00;;
5878;SDS011;2965;42.640;23.370;2022-07-29T04:43:19;10.47;;;9.47;;
5878;SDS011;2965;42.640;23.370;2022-07-29T04:45:44;10.87;;;8.90;;
5878;SDS011;2965;42.640;23.370;2022-07-29T04:48:09;11.70;;;10.53;;
5878;SDS011;2965;42.640;23.370;2022-07-29T04:50:37;11.60;;;10.40;;
5878;SDS011;2965;42.640;23.370;2022-07-29T04:53:03;11.33;;;10.33;;
5878;SDS011;2965;42.640;23.370;2022-07-29T04:55:28;12.97;;;9.50;;
5878;SDS011;2965;42.640;23.370;2022-07-29T04:57:54;12.33;;;10.37;;
5878;SDS011;2965;42.640;23.370;2022-07-29T05:00:19;10.00;;;9.10;;
5878;SDS011;2965;42.640;23.370;2022-07-29T05:02:45;11.53;;;10.30;;
5878;SDS011;2965;42.640;23.370;2022-07-29T05:05:10;14.23;;;9.30;;
5878;SDS011;2965;42.640;23.370;2022-07-29T05:07:36;10.27;;;9.07;;
5878;SDS011;2965;42.640;23.370;2022-07-29T05:10:01;14.20;;;9.67;;
5878;SDS011;2965;42.640;23.370;2022-07-29T05:12:27;10.87;;;9.90;;
5878;SDS011;2965;42.640;23.370;2022-07-29T05:14:52;10.90;;;9.80;;
5878;SDS011;2965;42.640;23.370;2022-07-29T05:17:18;12.33;;;9.83;;
5878;SDS011;2965;42.640;23.370;2022-07-29T05:19:43;13.33;;;8.87;;
5878;SDS011;2965;42.640;23.370;2022-07-29T05:22:09;14.60;;;11.17;;
5878;SDS011;2965;42.640;23.370;2022-07-29T05:24:34;13.50;;;10.67;;
5878;SDS011;2965;42.640;23.370;2022-07-29T05:27:00;15.93;;;10.83;;
5878;SDS011;2965;42.640;23.370;2022-07-29T05:29:25;10.70;;;9.70;;
5878;SDS011;2965;42.640;23.370;2022-07-29T05:31:51;11.07;;;9.90;;
5878;SDS011;2965;42.640;23.370;2022-07-29T05:34:17;15.67;;;10.50;;
5878;SDS011;2965;42.640;23.370;2022-07-29T05:36:43;19.83;;;10.17;;
5878;SDS011;2965;42.640;23.370;2022-07-29T05:39:10;11.90;;;9.60;;
5878;SDS011;2965;42.640;23.370;2022-07-29T05:41:35;10.73;;;9.43;;
5878;SDS011;2965;42.640;23.370;2022-07-29T05:44:01;10.57;;;9.67;;
5878;SDS011;2965;42.640;23.370;2022-07-29T05:46:27;10.53;;;9.53;;
5878;SDS011;2965;42.640;23.370;2022-07-29T05:48:53;10.83;;;9.93;;
5878;SDS011;2965;42.640;23.370;2022-07-29T05:51:18;11.70;;;10.50;;
5878;SDS011;2965;42.640;23.370;2022-07-29T05:53:43;14.63;;;10.13;;
5878;SDS011;2965;42.640;23.370;2022-07-29T05:56:09;11.93;;;10.83;;
5878;SDS011;2965;42.640;23.370;2022-07-29T05:58:35;21.93;;;10.80;;
5878;SDS011;2965;42.640;23.370;2022-07-29T06:01:01;11.93;;;10.90;;
5878;SDS011;2965;42.640;23.370;2022-07-29T06:03:27;11.17;;;10.00;;
5878;SDS011;2965;42.640;23.370;2022-07-29T06:05:53;10.97;;;9.93;;
5878;SDS011;2965;42.640;23.370;2022-07-29T06:08:18;12.30;;;10.00;;
5878;SDS011;2965;42.640;23.370;2022-07-29T06:10:44;11.00;;;9.80;;
5878;SDS011;2965;42.640;23.370;2022-07-29T06:13:10;11.20;;;10.30;;
5878;SDS011;2965;42.640;23.370;2022-07-29T06:15:36;14.50;;;11.40;;
5878;SDS011;2965;42.640;23.370;2022-07-29T06:18:02;10.73;;;9.80;;
5878;SDS011;2965;42.640;23.370;2022-07-29T06:20:28;14.87;;;10.87;;
5878;SDS011;2965;42.640;23.370;2022-07-29T06:22:55;11.17;;;10.03;;
5878;SDS011;2965;42.640;23.370;2022-07-29T06:25:20;20.07;;;10.40;;
5878;SDS011;2965;42.640;23.370;2022-07-29T06:27:46;12.63;;;10.53;;
5878;SDS011;2965;42.640;23.370;2022-07-29T06:30:12;17.83;;;11.60;;
5878;SDS011;2965;42.640;23.370;2022-07-29T06:32:37;14.07;;;10.17;;
5878;SDS011;2965;42.640;23.370;2022-07-29T06:35:03;13.40;;;11.00;;
5878;SDS011;2965;42.640;23.370;2022-07-29T06:37:28;13.57;;;10.50;;
5878;SDS011;2965;42.640;23.370;2022-07-29T06:39:54;11.47;;;10.33;;
5878;SDS011;2965;42.640;23.370;2022-07-29T06:42:41;11.77;;;10.57;;
5878;SDS011;2965;42.640;23.370;2022-07-29T06:45:07;15.47;;;10.50;;
5878;SDS011;2965;42.640;23.370;2022-07-29T06:47:33;13.33;;;10.07;;
5878;SDS011;2965;42.640;23.370;2022-07-29T06:49:59;13.90;;;10.63;;
5878;SDS011;2965;42.640;23.370;2022-07-29T06:52:24;11.60;;;10.27;;
5878;SDS011;2965;42.640;23.370;2022-07-29T06:54:50;10.47;;;9.67;;
5878;SDS011;2965;42.640;23.370;2022-07-29T06:57:16;16.20;;;9.93;;
5878;SDS011;2965;42.640;23.370;2022-07-29T06:59:41;18.23;;;10.57;;
5878;SDS011;2965;42.640;23.370;2022-07-29T07:02:06;11.63;;;10.60;;
5878;SDS011;2965;42.640;23.370;2022-07-29T07:04:32;10.30;;;9.30;;
5878;SDS011;2965;42.640;23.370;2022-07-29T07:06:58;17.53;;;10.90;;
5878;SDS011;2965;42.640;23.370;2022-07-29T07:09:24;10.30;;;9.30;;
5878;SDS011;2965;42.640;23.370;2022-07-29T07:11:50;9.50;;;8.30;;
5878;SDS011;2965;42.640;23.370;2022-07-29T07:14:15;15.73;;;8.40;;
5878;SDS011;2965;42.640;23.370;2022-07-29T07:16:40;10.67;;;9.67;;
5878;SDS011;2965;42.640;23.370;2022-07-29T07:19:06;9.43;;;8.37;;
5878;SDS011;2965;42.640;23.370;2022-07-29T07:21:32;8.43;;;7.90;;
5878;SDS011;2965;42.640;23.370;2022-07-29T07:23:58;8.70;;;7.70;;
5878;SDS011;2965;42.640;23.370;2022-07-29T07:26:24;7.87;;;7.37;;
5878;SDS011;2965;42.640;23.370;2022-07-29T07:28:50;7.27;;;6.80;;
5878;SDS011;2965;42.640;23.370;2022-07-29T07:31:15;9.43;;;8.43;;
5878;SDS011;2965;42.640;23.370;2022-07-29T07:33:41;8.60;;;7.80;;
5878;SDS011;2965;42.640;23.370;2022-07-29T07:36:06;7.63;;;6.77;;
5878;SDS011;2965;42.640;23.370;2022-07-29T07:38:31;7.80;;;6.90;;
5878;SDS011;2965;42.640;23.370;2022-07-29T07:40:57;7.90;;;7.40;;
5878;SDS011;2965;42.640;23.370;2022-07-29T07:43:22;7.67;;;6.70;;
5878;SDS011;2965;42.640;23.370;2022-07-29T07:45:48;7.10;;;6.50;;
5878;SDS011;2965;42.640;23.370;2022-07-29T07:48:13;6.57;;;5.93;;
5878;SDS011;2965;42.640;23.370;2022-07-29T07:50:38;7.07;;;6.50;;
5878;SDS011;2965;42.640;23.370;2022-07-29T07:53:04;6.63;;;6.33;;
5878;SDS011;2965;42.640;23.370;2022-07-29T07:55:29;10.37;;;7.10;;
5878;SDS011;2965;42.640;23.370;2022-07-29T07:57:55;6.27;;;5.77;;
5878;SDS011;2965;42.640;23.370;2022-07-29T08:00:20;6.83;;;6.50;;
5878;SDS011;2965;42.640;23.370;2022-07-29T08:02:46;6.60;;;6.20;;
5878;SDS011;2965;42.640;23.370;2022-07-29T08:05:12;11.50;;;6.80;;
5878;SDS011;2965;42.640;23.370;2022-07-29T08:07:42;6.93;;;6.40;;
5878;SDS011;2965;42.640;23.370;2022-07-29T08:10:08;7.00;;;6.63;;
5878;SDS011;2965;42.640;23.370;2022-07-29T08:12:34;6.90;;;6.30;;
5878;SDS011;2965;42.640;23.370;2022-07-29T08:14:59;5.20;;;5.00;;
5878;SDS011;2965;42.640;23.370;2022-07-29T08:17:25;7.00;;;6.30;;
5878;SDS011;2965;42.640;23.370;2022-07-29T08:19:51;7.07;;;6.57;;
5878;SDS011;2965;42.640;23.370;2022-07-29T08:22:17;5.90;;;5.37;;
5878;SDS011;2965;42.640;23.370;2022-07-29T08:24:42;5.20;;;5.00;;
5878;SDS011;2965;42.640;23.370;2022-07-29T08:27:08;6.37;;;6.00;;
5878;SDS011;2965;42.640;23.370;2022-07-29T08:29:35;6.17;;;5.60;;
5878;SDS011;2965;42.640;23.370;2022-07-29T08:32:01;10.90;;;5.47;;
5878;SDS011;2965;42.640;23.370;2022-07-29T08:34:26;7.83;;;5.30;;
5878;SDS011;2965;42.640;23.370;2022-07-29T08:36:52;6.37;;;5.83;;
5878;SDS011;2965;42.640;23.370;2022-07-29T08:39:17;5.37;;;4.97;;
5878;SDS011;2965;42.640;23.370;2022-07-29T08:41:43;6.30;;;6.00;;
5878;SDS011;2965;42.640;23.370;2022-07-29T08:44:12;9.07;;;4.90;;
5878;SDS011;2965;42.640;23.370;2022-07-29T08:46:38;6.10;;;5.80;;
5878;SDS011;2965;42.640;23.370;2022-07-29T08:49:04;5.53;;;4.50;;
5878;SDS011;2965;42.640;23.370;2022-07-29T08:51:30;5.20;;;5.00;;
5878;SDS011;2965;42.640;23.370;2022-07-29T08:53:58;5.40;;;5.10;;
5878;SDS011;2965;42.640;23.370;2022-07-29T08:56:24;5.30;;;5.00;;
5878;SDS011;2965;42.640;23.370;2022-07-29T08:58:50;4.87;;;4.47;;
5878;SDS011;2965;42.640;23.370;2022-07-29T09:01:16;4.50;;;4.40;;
5878;SDS011;2965;42.640;23.370;2022-07-29T09:03:46;5.57;;;5.07;;
5878;SDS011;2965;42.640;23.370;2022-07-29T09:06:17;4.17;;;4.07;;
5878;SDS011;2965;42.640;23.370;2022-07-29T09:08:44;4.07;;;3.97;;
5878;SDS011;2965;42.640;23.370;2022-07-29T09:11:10;4.97;;;4.60;;
5878;SDS011;2965;42.640;23.370;2022-07-29T09:13:38;5.40;;;5.00;;
5878;SDS011;2965;42.640;23.370;2022-07-29T09:16:04;5.40;;;5.20;;
5878;SDS011;2965;42.640;23.370;2022-07-29T09:18:33;6.53;;;5.93;;
5878;SDS011;2965;42.640;23.370;2022-07-29T09:21:00;10.20;;;5.80;;
5878;SDS011;2965;42.640;23.370;2022-07-29T09:24:27;5.00;;;4.80;;
5878;SDS011;2965;42.640;23.370;2022-07-29T09:26:38;5.33;;;5.03;;
5878;SDS011;2965;42.640;23.370;2022-07-29T09:29:09;5.47;;;5.23;;
5878;SDS011;2965;42.640;23.370;2022-07-29T09:31:37;5.70;;;5.40;;
5878;SDS011;2965;42.640;23.370;2022-07-29T09:34:05;6.50;;;6.10;;
5878;SDS011;2965;42.640;23.370;2022-07-29T09:36:37;6.20;;;5.90;;
5878;SDS011;2965;42.640;23.370;2022-07-29T09:39:04;6.97;;;6.47;;
5878;SDS011;2965;42.640;23.370;2022-07-29T09:41:29;5.63;;;5.43;;
5878;SDS011;2965;42.640;23.370;2022-07-29T09:44:09;6.83;;;6.27;;
5878;SDS011;2965;42.640;23.370;2022-07-29T09:46:35;5.90;;;5.67;;
5878;SDS011;2965;42.640;23.370;2022-07-29T09:49:11;5.03;;;4.90;;
5878;SDS011;2965;42.640;23.370;2022-07-29T09:51:39;5.67;;;5.47;;
5878;SDS011;2965;42.640;23.370;2022-07-29T09:54:21;6.47;;;6.17;;
5878;SDS011;2965;42.640;23.370;2022-07-29T09:56:48;6.93;;;6.53;;
5878;SDS011;2965;42.640;23.370;2022-07-29T09:59:13;6.20;;;5.93;;
5878;SDS011;2965;42.640;23.370;2022-07-29T10:01:39;6.90;;;6.50;;
5878;SDS011;2965;42.640;23.370;2022-07-29T10:04:05;5.90;;;5.70;;
5878;SDS011;2965;42.640;23.370;2022-07-29T10:06:30;7.90;;;6.17;;
5878;SDS011;2965;42.640;23.370;2022-07-29T10:09:08;6.73;;;6.50;;
5878;SDS011;2965;42.640;23.370;2022-07-29T10:11:35;9.57;;;7.47;;
5878;SDS011;2965;42.640;23.370;2022-07-29T10:14:02;7.13;;;6.70;;
5878;SDS011;2965;42.640;23.370;2022-07-29T10:16:28;8.17;;;7.77;;
5878;SDS011;2965;42.640;23.370;2022-07-29T10:18:58;6.40;;;6.10;;
5878;SDS011;2965;42.640;23.370;2022-07-29T10:21:25;6.20;;;5.93;;
5878;SDS011;2965;42.640;23.370;2022-07-29T10:23:51;7.10;;;6.70;;
5878;SDS011;2965;42.640;23.370;2022-07-29T10:26:18;6.60;;;6.30;;
5878;SDS011;2965;42.640;23.370;2022-07-29T10:28:45;6.77;;;6.47;;
5878;SDS011;2965;42.640;23.370;2022-07-29T10:31:13;6.17;;;5.97;;
5878;SDS011;2965;42.640;23.370;2022-07-29T10:33:55;6.23;;;5.93;;
5878;SDS011;2965;42.640;23.370;2022-07-29T10:42:20;5.73;;;5.53;;
5878;SDS011;2965;42.640;23.370;2022-07-29T10:44:51;5.20;;;5.00;;
5878;SDS011;2965;42.640;23.370;2022-07-29T10:47:27;6.23;;;5.83;;
5878;SDS011;2965;42.640;23.370;2022-07-29T10:50:03;5.47;;;5.27;;
5878;SDS011;2965;42.640;23.370;2022-07-29T10:55:36;5.40;;;5.10;;
5878;SDS011;2965;42.640;23.370;2022-07-29T10:58:17;5.67;;;5.23;;
5878;SDS011;2965;42.640;23.370;2022-07-29T11:00:44;5.43;;;5.13;;
5878;SDS011;2965;42.640;23.370;2022-07-29T11:06:12;5.50;;;5.40;;
5878;SDS011;2965;42.640;23.370;2022-07-29T11:08:38;5.20;;;5.10;;
5878;SDS011;2965;42.640;23.370;2022-07-29T11:16:15;4.60;;;4.50;;
5878;SDS011;2965;42.640;23.370;2022-07-29T11:21:36;5.37;;;5.07;;
5878;SDS011;2965;42.640;23.370;2022-07-29T11:29:47;7.70;;;5.47;;
5878;SDS011;2965;42.640;23.370;2022-07-29T11:32:17;5.60;;;5.13;;
5878;SDS011;2965;42.640;23.370;2022-07-29T11:34:49;5.43;;;5.23;;
5878;SDS011;2965;42.640;23.370;2022-07-29T11:37:34;4.50;;;4.40;;
5878;SDS011;2965;42.640;23.370;2022-07-29T11:47:23;4.60;;;4.50;;
5878;SDS011;2965;42.640;23.370;2022-07-29T11:49:50;5.50;;;5.10;;
5878;SDS011;2965;42.640;23.370;2022-07-29T11:52:17;4.67;;;4.57;;
5878;SDS011;2965;42.640;23.370;2022-07-29T11:54:43;5.03;;;4.80;;
5878;SDS011;2965;42.640;23.370;2022-07-29T11:57:10;5.10;;;4.90;;
5878;SDS011;2965;42.640;23.370;2022-07-29T11:59:39;5.30;;;5.20;;
5878;SDS011;2965;42.640;23.370;2022-07-29T12:02:06;5.67;;;5.47;;
5878;SDS011;2965;42.640;23.370;2022-07-29T12:04:33;4.97;;;4.87;;
5878;SDS011;2965;42.640;23.370;2022-07-29T12:06:58;4.97;;;4.87;;
5878;SDS011;2965;42.640;23.370;2022-07-29T12:09:24;5.30;;;5.20;;
5878;SDS011;2965;42.640;23.370;2022-07-29T12:11:55;5.50;;;5.40;;
5878;SDS011;2965;42.640;23.370;2022-07-29T12:16:51;5.60;;;5.40;;
5878;SDS011;2965;42.640;23.370;2022-07-29T12:19:16;5.93;;;5.70;;
5878;SDS011;2965;42.640;23.370;2022-07-29T12:24:11;6.13;;;5.93;;
5878;SDS011;2965;42.640;23.370;2022-07-29T12:26:36;6.33;;;5.87;;
5878;SDS011;2965;42.640;23.370;2022-07-29T12:29:15;5.63;;;5.37;;
5878;SDS011;2965;42.640;23.370;2022-07-29T12:31:42;5.40;;;5.20;;
5878;SDS011;2965;42.640;23.370;2022-07-29T12:34:09;5.47;;;5.33;;
5878;SDS011;2965;42.640;23.370;2022-07-29T12:36:36;6.60;;;6.40;;
5878;SDS011;2965;42.640;23.370;2022-07-29T12:39:02;5.23;;;5.10;;
5878;SDS011;2965;42.640;23.370;2022-07-29T12:41:28;11.93;;;5.20;;
5878;SDS011;2965;42.640;23.370;2022-07-29T12:43:54;6.40;;;6.10;;
5878;SDS011;2965;42.640;23.370;2022-07-29T12:46:20;5.80;;;5.70;;
5878;SDS011;2965;42.640;23.370;2022-07-29T12:48:49;6.17;;;5.97;;
5878;SDS011;2965;42.640;23.370;2022-07-29T12:51:30;5.33;;;5.23;;
5878;SDS011;2965;42.640;23.370;2022-07-29T12:54:05;6.27;;;5.97;;
5878;SDS011;2965;42.640;23.370;2022-07-29T12:56:41;5.83;;;5.63;;
5878;SDS011;2965;42.640;23.370;2022-07-29T12:59:15;5.50;;;5.40;;
5878;SDS011;2965;42.640;23.370;2022-07-29T13:01:46;5.67;;;5.47;;
5878;SDS011;2965;42.640;23.370;2022-07-29T13:06:59;5.47;;;5.33;;
5878;SDS011;2965;42.640;23.370;2022-07-29T13:09:35;4.93;;;4.83;;
5878;SDS011;2965;42.640;23.370;2022-07-29T13:12:02;5.70;;;5.30;;
5878;SDS011;2965;42.640;23.370;2022-07-29T13:16:59;5.80;;;5.60;;
5878;SDS011;2965;42.640;23.370;2022-07-29T13:22:05;6.00;;;5.83;;
5878;SDS011;2965;42.640;23.370;2022-07-29T13:24:32;5.43;;;5.33;;
5878;SDS011;2965;42.640;23.370;2022-07-29T13:26:57;5.13;;;5.03;;
5878;SDS011;2965;42.640;23.370;2022-07-29T13:29:23;6.60;;;6.37;;
5878;SDS011;2965;42.640;23.370;2022-07-29T13:31:48;6.07;;;5.87;;
5878;SDS011;2965;42.640;23.370;2022-07-29T13:34:14;5.97;;;5.77;;
5878;SDS011;2965;42.640;23.370;2022-07-29T13:36:40;5.83;;;5.53;;
5878;SDS011;2965;42.640;23.370;2022-07-29T13:39:05;5.27;;;5.17;;
5878;SDS011;2965;42.640;23.370;2022-07-29T13:41:30;5.93;;;5.63;;
5878;SDS011;2965;42.640;23.370;2022-07-29T13:43:56;5.33;;;5.13;;
5878;SDS011;2965;42.640;23.370;2022-07-29T13:46:21;6.07;;;5.80;;
5878;SDS011;2965;42.640;23.370;2022-07-29T13:48:47;6.10;;;5.90;;
5878;SDS011;2965;42.640;23.370;2022-07-29T13:51:12;5.17;;;5.07;;
5878;SDS011;2965;42.640;23.370;2022-07-29T13:53:38;5.33;;;5.10;;
5878;SDS011;2965;42.640;23.370;2022-07-29T13:56:03;5.63;;;5.43;;
5878;SDS011;2965;42.640;23.370;2022-07-29T13:58:31;6.93;;;5.17;;
5878;SDS011;2965;42.640;23.370;2022-07-29T14:00:59;5.70;;;5.50;;
5878;SDS011;2965;42.640;23.370;2022-07-29T14:03:25;5.60;;;5.40;;
5878;SDS011;2965;42.640;23.370;2022-07-29T14:05:51;4.80;;;4.70;;
5878;SDS011;2965;42.640;23.370;2022-07-29T14:08:16;5.27;;;5.07;;
5878;SDS011;2965;42.640;23.370;2022-07-29T14:10:42;5.53;;;5.33;;
5878;SDS011;2965;42.640;23.370;2022-07-29T14:13:07;5.60;;;5.40;;
5878;SDS011;2965;42.640;23.370;2022-07-29T14:15:33;5.03;;;4.83;;
5878;SDS011;2965;42.640;23.370;2022-07-29T14:17:58;4.73;;;4.63;;
5878;SDS011;2965;42.640;23.370;2022-07-29T14:20:24;4.80;;;4.70;;
5878;SDS011;2965;42.640;23.370;2022-07-29T14:22:49;5.00;;;4.90;;
5878;SDS011;2965;42.640;23.370;2022-07-29T14:25:15;4.50;;;4.40;;
5878;SDS011;2965;42.640;23.370;2022-07-29T14:27:40;5.50;;;5.10;;
5878;SDS011;2965;42.640;23.370;2022-07-29T14:30:07;5.67;;;5.27;;
5878;SDS011;2965;42.640;23.370;2022-07-29T14:32:33;5.60;;;5.40;;
5878;SDS011;2965;42.640;23.370;2022-07-29T14:34:59;5.37;;;5.17;;
5878;SDS011;2965;42.640;23.370;2022-07-29T14:37:24;5.10;;;4.90;;
5878;SDS011;2965;42.640;23.370;2022-07-29T14:39:50;5.73;;;5.63;;
5878;SDS011;2965;42.640;23.370;2022-07-29T14:42:15;5.03;;;4.80;;
5878;SDS011;2965;42.640;23.370;2022-07-29T14:44:40;5.17;;;4.97;;
5878;SDS011;2965;42.640;23.370;2022-07-29T14:47:06;5.30;;;5.00;;
5878;SDS011;2965;42.640;23.370;2022-07-29T14:49:31;5.77;;;5.67;;
5878;SDS011;2965;42.640;23.370;2022-07-29T14:51:57;5.47;;;5.27;;
5878;SDS011;2965;42.640;23.370;2022-07-29T14:54:22;5.77;;;5.47;;
5878;SDS011;2965;42.640;23.370;2022-07-29T14:56:48;5.93;;;5.63;;
5878;SDS011;2965;42.640;23.370;2022-07-29T14:59:15;5.93;;;5.53;;
5878;SDS011;2965;42.640;23.370;2022-07-29T15:01:41;5.60;;;5.40;;
5878;SDS011;2965;42.640;23.370;2022-07-29T15:04:07;5.07;;;4.97;;
5878;SDS011;2965;42.640;23.370;2022-07-29T15:06:33;5.80;;;5.40;;
5878;SDS011;2965;42.640;23.370;2022-07-29T15:08:59;6.10;;;5.77;;
5878;SDS011;2965;42.640;23.370;2022-07-29T15:11:24;6.20;;;5.90;;
5878;SDS011;2965;42.640;23.370;2022-07-29T15:13:50;5.60;;;5.30;;
5878;SDS011;2965;42.640;23.370;2022-07-29T15:16:15;5.40;;;5.20;;
5878;SDS011;2965;42.640;23.370;2022-07-29T15:18:41;5.63;;;5.43;;
5878;SDS011;2965;42.640;23.370;2022-07-29T15:21:07;5.00;;;4.80;;
5878;SDS011;2965;42.640;23.370;2022-07-29T15:23:32;5.50;;;5.40;;
5878;SDS011;2965;42.640;23.370;2022-07-29T15:26:00;5.80;;;5.40;;
5878;SDS011;2965;42.640;23.370;2022-07-29T15:28:25;5.30;;;5.00;;
5878;SDS011;2965;42.640;23.370;2022-07-29T15:30:51;5.03;;;4.93;;
5878;SDS011;2965;42.640;23.370;2022-07-29T15:33:16;5.20;;;4.80;;
5878;SDS011;2965;42.640;23.370;2022-07-29T15:35:42;4.90;;;4.47;;
5878;SDS011;2965;42.640;23.370;2022-07-29T15:38:08;4.80;;;4.60;;
5878;SDS011;2965;42.640;23.370;2022-07-29T15:40:33;5.10;;;4.90;;
5878;SDS011;2965;42.640;23.370;2022-07-29T15:43:03;4.97;;;4.70;;
5878;SDS011;2965;42.640;23.370;2022-07-29T15:45:34;4.60;;;4.27;;
5878;SDS011;2965;42.640;23.370;2022-07-29T15:48:04;5.50;;;5.20;;
5878;SDS011;2965;42.640;23.370;2022-07-29T15:50:31;5.73;;;5.27;;
5878;SDS011;2965;42.640;23.370;2022-07-29T15:52:57;5.00;;;4.70;;